Marienleuchte, Germany

2:02 AM CEST on July 30, 2016 (GMT +0200)
Niendorfer Weg | | Change Station

Elev 26 ft 54.44 °N, 11.20 °E | Updated 1 minute ago

Mostly Cloudy
Mostly Cloudy
62.8 °F
Feels Like 62.8 °F
N
0.6
Wind Variable Wind from NNW
Gusts 2.5 mph

Today
High -- | Low -- °F
--% Chance of Precip.
Yesterday
High -- | Low -- °F
Precip. -- in
Pressure 29.80 in
Visibility 6.2 miles
Clouds Mostly Cloudy 8000 ft
Dew Point 60 °F
Humidity 91%
Rainfall 0.00 in
Snow Depth Not available.
5:23 AM 9:18 PM
Waning Crescent, 18% visible
METAR ETNL 292320Z 24002KT 9999 BKN080 18/15 Q1009 BLU
Pressure 29.80 in
Visibility 6.2 miles
Clouds Mostly Cloudy 8000 ft
Dew Point 60 °F
Humidity 91%
Rainfall 0.00 in
Snow Depth Not available.
5:23 AM 9:18 PM
Waning Crescent, 18% visible
METAR ETNL 292320Z 24002KT 9999 BKN080 18/15 Q1009 BLU

10-Day Weather Forecast

×

Almanac

Astronomy

Jul. 30, 2016 Rise Set
Actual Time
Civil Twilight
Nautical Twilight
Astronomical Twilight
Moon
Length of Visible Light
Length of Day
Tomorrow will be .
, % of the Moon is Illuminated

Today's Extremes

Country Highs Country Lows

Community

WunderPhotos

Upload Photos

1,928,449 photos uploaded!

WunderBlog® & News

Nearby

Air Quality

  Air Quality AQ Index Pollutant
Not available.

Snow Depth

Station Depth Elevation

Earthquake Activity

City Distance Mag. Time & Date
Minimum magnitude displayed is 2.5.

Coastal Water Temperatures

Place Temperature

Stations

Nearby Weather Stations

Station Location Temp. Windchill Dew Point Humidity Wind Precip. Elev Updated Type